Main page
METAR-TAF:

METAR-TAF

Airports :

Houari Boumediene Airport

Algiers, Algeria

latitude: 36-43N, longitude: 003-15E, elevation: 25 m

Current weather observation

The report was made 22 minutes ago, at 07:30 UTC
Wind 3 kt from the West/Northwest, varying between West and North/Northwest
Temperature 29°C
Humidity 58%
Pressure 1011 hPa
Visibility 10 km or more
no clouds below 1500 m and no cumulonimbus

METAR: DAAG 180730Z 29003KT 270V330 CAVOK 29/20 Q1011

Time: 08:52 (07:52 UTC)

Forecast

The report was made 2 hours and 52 minutes ago, at 05:00 UTC
Forecast valid from 18 at 06 UTC to 19 at 06 UTC
Wind 2 kt from variable directions
Visibility 10 km or more
no clouds below 1500 m and no cumulonimbus
Becoming
from 18 at 08 UTC to 18 at 11 UTC
Wind 12 kt from the West/Northwest
Becoming
from 18 at 16 UTC to 18 at 19 UTC
Wind 2 kt from variable directions

TAF: DAAG 180500Z 1806/1906 VRB02KT CAVOK BECMG 1808/1811 30012KT BECMG 1816/1819 VRB02KT

Weather observations and forecasts of more than 4000 airports (METAR and TAF reports).

The available stations are represented by yellow and red dots on the map.

Hover mouse over dot to see the name of the station.

Then click to see weather observations and forecasts.

To change the map : click on the green buttons with a black cross to zoom in, on the green button with a dash to zoom out, or on the green arrows for adjacent maps.


METAR-TAF: